createdAt,value
2023-03-11T00:05:37.423Z,0
2023-03-11T00:10:37.336Z,0
2023-03-11T00:15:55.987Z,0
2023-03-11T00:21:37.287Z,0
2023-03-11T00:26:37.331Z,0
2023-03-11T00:31:55.868Z,0
2023-03-11T00:36:55.833Z,0
2023-03-11T00:41:55.834Z,0
2023-03-11T00:46:55.896Z,0
2023-03-11T00:52:37.534Z,0
2023-03-11T00:57:55.814Z,0
2023-03-11T01:02:55.848Z,0
2023-03-11T01:07:55.837Z,0
2023-03-11T01:12:55.834Z,0
2023-03-11T01:18:37.307Z,0
2023-03-11T01:23:37.382Z,0
2023-03-11T01:28:55.833Z,0
2023-03-11T01:33:55.833Z,0
2023-03-11T01:38:55.882Z,0
2023-03-11T01:44:37.306Z,0
2023-03-11T01:49:55.839Z,0
2023-03-11T01:55:37.332Z,0
2023-03-11T02:00:55.858Z,0
2023-03-11T02:05:55.840Z,0
2023-03-11T02:11:37.324Z,0
2023-03-11T02:16:55.857Z,0
2023-03-11T02:21:55.834Z,0
2023-03-11T02:27:37.306Z,0
2023-03-11T02:32:37.351Z,0
2023-03-11T02:37:55.817Z,0
2023-03-11T02:42:55.952Z,0
2023-03-11T02:47:55.844Z,0
2023-03-11T02:53:37.314Z,0
2023-03-11T02:58:55.854Z,0
2023-03-11T03:04:37.290Z,0
2023-03-11T03:09:55.802Z,0
2023-03-11T03:15:37.310Z,0
2023-03-11T03:20:37.302Z,0
2023-03-11T03:25:55.810Z,0
2023-03-11T03:31:37.355Z,0
2023-03-11T03:36:55.796Z,0
2023-03-11T03:41:55.862Z,0
2023-03-11T03:47:37.310Z,0
2023-03-11T03:52:37.292Z,0
2023-03-11T03:57:37.318Z,0
2023-03-11T04:02:37.458Z,0
2023-03-11T04:07:55.871Z,0
2023-03-11T04:13:37.303Z,0
2023-03-11T04:18:55.832Z,0
2023-03-11T04:23:55.868Z,0
2023-03-11T04:29:37.288Z,0
2023-03-11T04:34:37.292Z,0
2023-03-11T04:39:37.331Z,0
2023-03-11T04:44:55.819Z,0
2023-03-11T04:49:55.845Z,0
2023-03-11T04:55:37.311Z,0
2023-03-11T05:00:55.833Z,0
2023-03-11T05:06:37.304Z,0
2023-03-11T05:11:37.317Z,0
2023-03-11T05:16:55.800Z,0
2023-03-11T05:22:37.301Z,0
2023-03-11T05:27:55.825Z,0
2023-03-11T05:32:55.835Z,0
2023-03-11T05:37:55.832Z,0
2023-03-11T05:43:37.300Z,0
2023-03-11T05:48:55.840Z,0
2023-03-11T05:53:55.830Z,0
2023-03-11T05:59:37.313Z,0
2023-03-11T06:04:37.530Z,0
2023-03-11T06:09:55.847Z,0
2023-03-11T06:15:37.300Z,0
2023-03-11T06:20:37.325Z,0
2023-03-11T06:25:55.801Z,0
2023-03-11T06:30:55.835Z,0
2023-03-11T06:36:37.314Z,0
2023-03-11T06:41:37.302Z,0
2023-03-11T06:46:55.845Z,0
2023-03-11T06:52:37.282Z,0
2023-03-11T06:57:55.799Z,0
2023-03-11T07:02:55.825Z,0
2023-03-11T07:07:55.797Z,0
2023-03-11T07:13:37.340Z,0
2023-03-11T07:18:55.890Z,0
2023-03-11T07:23:55.876Z,0
2023-03-11T07:29:37.297Z,0
2023-03-11T07:34:55.861Z,0
2023-03-11T07:40:37.319Z,0
2023-03-11T07:45:55.854Z,0
2023-03-11T07:51:37.287Z,0
2023-03-11T07:56:37.329Z,0
2023-03-11T08:01:55.773Z,0
2023-03-11T08:06:55.828Z,0
2023-03-11T08:11:59.504Z,0.5
2023-03-11T08:17:37.258Z,2.1
2023-03-11T08:22:43.412Z,2.8
2023-03-11T08:27:37.301Z,5.5
2023-03-11T08:32:55.835Z,6.6
2023-03-11T08:38:37.313Z,7.9
2023-03-11T08:43:37.267Z,9.7
2023-03-11T08:48:37.275Z,9.4
2023-03-11T08:53:55.878Z,11.1
2023-03-11T08:59:37.310Z,11.7
2023-03-11T09:04:37.297Z,11.6
2023-03-11T09:09:55.814Z,13
2023-03-11T09:14:55.833Z,12.7
2023-03-11T09:20:37.350Z,14.5
2023-03-11T09:25:55.821Z,14.8
2023-03-11T09:30:55.823Z,16.1
2023-03-11T09:35:55.896Z,15.4
2023-03-11T09:41:45.091Z,15.2
2023-03-11T09:46:55.888Z,14.3
2023-03-11T09:52:37.285Z,14.2
2023-03-11T09:57:37.342Z,13.1
2023-03-11T10:02:55.988Z,14.4
2023-03-11T10:07:55.864Z,14.9
2023-03-11T10:13:37.321Z,14.1
2023-03-11T10:18:55.803Z,13.3
2023-03-11T10:23:55.812Z,13.2
2023-03-11T10:28:55.860Z,11.7
2023-03-11T10:33:55.857Z,12.5
2023-03-11T10:39:37.265Z,13.4
2023-03-11T10:44:37.334Z,13.3
2023-03-11T10:49:37.333Z,13.4
2023-03-11T10:54:55.795Z,12.2
2023-03-11T10:59:55.870Z,13.2
2023-03-11T11:05:37.478Z,13.7
2023-03-11T11:10:55.824Z,13.6
2023-03-11T11:16:37.392Z,13.2
2023-03-11T11:21:37.315Z,13.5
2023-03-11T11:26:55.829Z,12.6
2023-03-11T11:32:37.407Z,12.6
2023-03-11T11:37:37.286Z,13
2023-03-11T11:42:47.311Z,12.8
2023-03-11T11:47:55.936Z,12.7
2023-03-11T11:53:37.297Z,12.5
2023-03-11T11:58:37.299Z,12.5
2023-03-11T12:03:55.923Z,13
2023-03-11T12:08:55.893Z,12.7
2023-03-11T12:14:37.293Z,13.1
2023-03-11T12:19:37.331Z,12.8
2023-03-11T12:24:55.801Z,12.6
2023-03-11T12:29:55.845Z,12.4
2023-03-11T12:35:37.344Z,12.5
2023-03-11T12:40:55.845Z,13
2023-03-11T12:46:37.351Z,11.9
2023-03-11T12:51:55.848Z,12
2023-03-11T12:56:55.828Z,11.6
2023-03-11T13:01:55.860Z,11.3
2023-03-11T13:06:55.867Z,12.8
2023-03-11T13:12:37.326Z,11.9
2023-03-11T13:17:37.329Z,11.9
2023-03-11T13:22:37.340Z,11.8
2023-03-11T13:27:37.374Z,11.9
2023-03-11T13:32:55.956Z,12.5
2023-03-11T13:37:55.856Z,12.6
2023-03-11T13:42:55.858Z,12.1
2023-03-11T13:47:55.848Z,11.2
2023-03-11T13:53:37.396Z,11
2023-03-11T13:58:55.842Z,12.4
2023-03-11T14:04:37.354Z,12.4
2023-03-11T14:09:37.495Z,11.9
2023-03-11T14:14:55.854Z,12.6
2023-03-11T14:20:37.385Z,12.8
2023-03-11T14:25:37.347Z,12.3
2023-03-11T14:30:37.338Z,12.8
2023-03-11T14:35:55.898Z,12.3
2023-03-11T14:41:37.326Z,11.8
2023-03-11T14:46:37.321Z,12.4
2023-03-11T14:51:37.363Z,11.8
2023-03-11T14:56:55.862Z,11.7
2023-03-11T15:02:37.319Z,11.3
2023-03-11T15:07:37.335Z,11.3
2023-03-11T15:12:55.875Z,11.7
2023-03-11T15:18:37.297Z,11.6
2023-03-11T15:23:37.407Z,12.5
2023-03-11T15:28:55.912Z,11.2
2023-03-11T15:34:37.288Z,11.1
2023-03-11T15:39:37.637Z,11.8
2023-03-11T15:44:37.357Z,11.5
2023-03-11T15:49:37.341Z,11.3
2023-03-11T15:54:56.310Z,11.4
2023-03-11T15:59:55.885Z,11.5
2023-03-11T16:05:37.329Z,11.9
2023-03-11T16:10:37.415Z,11.3
2023-03-11T16:15:55.937Z,11.1
2023-03-11T16:20:55.842Z,12.4
2023-03-11T16:26:37.355Z,12.2
2023-03-11T16:31:55.872Z,12
2023-03-11T16:37:37.299Z,11.3
2023-03-11T16:42:37.320Z,10.3
2023-03-11T16:47:55.855Z,9.3
2023-03-11T16:52:55.875Z,9.2
2023-03-11T16:58:37.318Z,8.6
2023-03-11T17:03:55.868Z,8.4
2023-03-11T17:08:55.843Z,8
2023-03-11T17:14:16.612Z,7.9
2023-03-11T17:19:37.366Z,8
2023-03-11T17:24:37.341Z,8
2023-03-11T17:29:37.364Z,7.7
2023-03-11T17:34:55.887Z,7.3
2023-03-11T17:40:37.338Z,7.4
2023-03-11T17:45:55.835Z,7.3
2023-03-11T17:50:55.880Z,7.7
2023-03-11T17:56:37.350Z,7.8
2023-03-11T18:01:55.917Z,7.4
2023-03-11T18:07:37.339Z,6.4
2023-03-11T18:12:55.877Z,5.9
2023-03-11T18:18:37.314Z,6.1
2023-03-11T18:23:37.359Z,5.9
2023-03-11T18:28:55.845Z,5.7
2023-03-11T18:34:37.360Z,5.8
2023-03-11T18:39:55.849Z,5.5
2023-03-11T18:44:55.832Z,5.7
2023-03-11T18:49:55.842Z,5.1
2023-03-11T18:55:37.329Z,5.2
2023-03-11T19:00:37.360Z,5.1
2023-03-11T19:05:55.864Z,4.8
2023-03-11T19:11:37.326Z,4.8
2023-03-11T19:16:37.374Z,5.3
2023-03-11T19:21:55.851Z,4.6
2023-03-11T19:26:55.884Z,4.2
2023-03-11T19:32:37.319Z,4.3
2023-03-11T19:37:37.322Z,3.9
2023-03-11T19:42:37.376Z,4.1
2023-03-11T19:47:55.869Z,4.5
2023-03-11T19:53:37.314Z,4.6
2023-03-11T19:58:37.356Z,4.4
2023-03-11T20:03:55.855Z,5.1
2023-03-11T20:08:56.077Z,5.3
2023-03-11T20:14:37.330Z,5.1
2023-03-11T20:19:37.333Z,4.5
2023-03-11T20:24:55.822Z,4.5
2023-03-11T20:29:55.968Z,4.4
2023-03-11T20:35:37.355Z,4.5
2023-03-11T20:40:55.901Z,4.5
2023-03-11T20:46:37.482Z,4.3
2023-03-11T20:51:55.813Z,4.3
2023-03-11T20:56:55.889Z,4.2
2023-03-11T21:01:56.107Z,3.9
2023-03-11T21:07:37.340Z,3.9
2023-03-11T21:12:37.320Z,3.6
2023-03-11T21:17:55.915Z,3.5
2023-03-11T21:23:37.408Z,3.4
2023-03-11T21:28:55.978Z,3.3
2023-03-11T21:34:47.495Z,3.3
2023-03-11T21:39:55.846Z,3.2
2023-03-11T21:44:55.925Z,3.1
2023-03-11T21:49:55.959Z,2.7
2023-03-11T21:54:55.940Z,2.7
2023-03-11T22:00:37.521Z,2.5
2023-03-11T22:05:55.873Z,2.9
2023-03-11T22:11:37.289Z,3
2023-03-11T22:16:37.439Z,2.8
2023-03-11T22:21:55.982Z,2.7
2023-03-11T22:27:37.312Z,2.6
2023-03-11T22:32:55.967Z,2.4
2023-03-11T22:37:55.891Z,2.1
2023-03-11T22:43:37.338Z,2.1
2023-03-11T22:48:55.834Z,1.9
2023-03-11T22:53:55.902Z,2.1
2023-03-11T22:59:37.385Z,2
2023-03-11T23:04:55.818Z,2.1
2023-03-11T23:09:56.138Z,2.1
2023-03-11T23:14:55.867Z,2.1
2023-03-11T23:20:37.284Z,2.4
2023-03-11T23:25:37.334Z,2.4
2023-03-11T23:30:55.841Z,2.4
2023-03-11T23:35:55.873Z,2.5
2023-03-11T23:40:55.907Z,2.3
2023-03-11T23:46:37.419Z,2.4
2023-03-11T23:51:37.342Z,2.2
2023-03-11T23:56:55.859Z,2.1
